createdAt,value
2018-02-11T00:02:09.317Z,73.50
2018-02-11T00:04:37.375Z,73.00
2018-02-11T00:07:05.458Z,73.40
2018-02-11T00:09:33.497Z,73.20
2018-02-11T00:12:02.321Z,73.20
2018-02-11T00:14:30.445Z,73.10
2018-02-11T00:16:58.523Z,73.00
2018-02-11T00:19:26.766Z,73.40
2018-02-11T00:21:54.878Z,73.50
2018-02-11T00:24:22.942Z,73.50
2018-02-11T00:26:51.045Z,73.40
2018-02-11T00:29:19.068Z,73.80
2018-02-11T00:31:47.266Z,73.30
2018-02-11T00:34:16.108Z,72.60
2018-02-11T00:36:49.888Z,72.60
2018-02-11T00:39:18.710Z,72.70
2018-02-11T00:41:46.772Z,72.70
2018-02-11T00:44:14.828Z,72.70
2018-02-11T00:46:42.956Z,72.20
2018-02-11T00:49:11.007Z,71.80
2018-02-11T00:51:39.121Z,72.00
2018-02-11T00:54:07.181Z,71.70
2018-02-11T00:56:35.263Z,71.10
2018-02-11T00:59:03.327Z,71.30
2018-02-11T01:01:31.391Z,71.00
2018-02-11T01:03:59.994Z,71.10
2018-02-11T01:06:28.046Z,71.20
2018-02-11T01:08:56.110Z,70.20
2018-02-11T01:11:24.150Z,69.80
2018-02-11T01:13:52.228Z,70.30
2018-02-11T01:16:20.285Z,69.70
2018-02-11T01:18:48.358Z,70.30
2018-02-11T01:21:16.402Z,70.20
2018-02-11T01:23:44.451Z,69.90
2018-02-11T01:26:12.866Z,70.60
2018-02-11T01:28:40.903Z,69.60
2018-02-11T01:31:08.943Z,69.10
2018-02-11T01:33:37.053Z,69.00
2018-02-11T01:36:05.108Z,66.70
2018-02-11T01:38:33.173Z,67.40
2018-02-11T01:41:01.220Z,67.60
2018-02-11T01:43:30.031Z,67.70
2018-02-11T01:45:58.115Z,66.90
2018-02-11T01:48:26.175Z,66.80
2018-02-11T01:50:54.424Z,67.00
2018-02-11T01:53:22.477Z,66.20
2018-02-11T01:55:50.531Z,66.80
2018-02-11T01:58:18.608Z,65.70
2018-02-11T02:00:46.764Z,66.00
2018-02-11T02:03:14.916Z,66.00
2018-02-11T02:05:42.961Z,66.30
2018-02-11T02:08:11.008Z,66.10
2018-02-11T02:10:39.062Z,66.30
2018-02-11T02:13:07.144Z,66.30
2018-02-11T02:15:35.237Z,65.60
2018-02-11T02:18:03.251Z,66.20
2018-02-11T02:20:31.431Z,67.20
2018-02-11T02:22:59.479Z,65.90
2018-02-11T02:25:28.298Z,64.30
2018-02-11T02:27:56.375Z,64.30
2018-02-11T02:30:24.419Z,63.90
2018-02-11T02:32:52.467Z,63.90
2018-02-11T02:35:20.918Z,63.60
2018-02-11T02:37:48.972Z,63.80
2018-02-11T02:40:17.032Z,63.40
2018-02-11T02:42:45.850Z,63.90
2018-02-11T02:45:14.677Z,62.90
2018-02-11T02:47:42.758Z,62.80
2018-02-11T02:50:10.790Z,63.30
2018-02-11T02:52:38.885Z,62.90
2018-02-11T02:55:07.712Z,63.10
2018-02-11T02:57:36.532Z,62.70
2018-02-11T03:00:04.676Z,62.70
2018-02-11T03:02:32.905Z,62.20
2018-02-11T03:05:00.961Z,61.90
2018-02-11T03:07:29.007Z,61.80
2018-02-11T03:09:57.059Z,61.70
2018-02-11T03:12:25.161Z,61.90
2018-02-11T03:14:53.190Z,61.10
2018-02-11T03:17:21.987Z,60.80
2018-02-11T03:19:50.870Z,61.10
2018-02-11T03:22:18.892Z,61.10
2018-02-11T03:24:49.315Z,60.70
2018-02-11T03:27:18.140Z,60.80
2018-02-11T03:29:46.417Z,60.80
2018-02-11T03:32:14.489Z,60.70
2018-02-11T03:34:43.313Z,60.20
2018-02-11T03:37:11.378Z,60.20
2018-02-11T03:39:39.426Z,60.60
2018-02-11T03:42:07.475Z,60.40
2018-02-11T03:44:35.528Z,60.30
2018-02-11T03:47:04.343Z,61.00
2018-02-11T03:49:32.378Z,60.90
2018-02-11T03:52:00.424Z,61.10
2018-02-11T03:54:28.475Z,62.00
2018-02-11T03:56:56.528Z,61.80
2018-02-11T03:59:25.199Z,61.40
2018-02-11T04:01:54.179Z,61.40
2018-02-11T04:04:22.965Z,61.50
2018-02-11T04:06:51.023Z,61.50
2018-02-11T04:09:19.844Z,62.90
2018-02-11T04:11:47.899Z,62.10
2018-02-11T04:14:16.006Z,62.10
2018-02-11T04:16:44.050Z,62.10
2018-02-11T04:19:12.097Z,62.20
2018-02-11T04:21:40.159Z,61.70
2018-02-11T04:24:08.193Z,61.90
2018-02-11T04:26:36.255Z,61.40
2018-02-11T04:29:04.335Z,61.20
2018-02-11T04:31:32.590Z,61.60
2018-02-11T04:34:00.665Z,61.40
2018-02-11T04:36:30.397Z,61.80
2018-02-11T04:38:58.438Z,61.70
2018-02-11T04:41:26.499Z,61.40
2018-02-11T04:43:54.574Z,61.30
2018-02-11T04:46:23.356Z,61.70
2018-02-11T04:48:51.394Z,61.60
2018-02-11T04:51:19.460Z,61.80
2018-02-11T04:53:47.507Z,62.00
2018-02-11T04:56:15.546Z,62.00
2018-02-11T04:58:43.619Z,62.00
2018-02-11T05:01:11.675Z,62.10
2018-02-11T05:03:39.736Z,62.30
2018-02-11T05:06:07.844Z,62.50
2018-02-11T05:08:35.894Z,62.10
2018-02-11T05:11:04.733Z,62.50
2018-02-11T05:13:32.787Z,62.40
2018-02-11T05:16:00.822Z,62.70
2018-02-11T05:18:30.971Z,62.90
2018-02-11T05:20:59.010Z,62.80
2018-02-11T05:23:27.058Z,63.00
2018-02-11T05:25:55.155Z,63.10
2018-02-11T05:28:23.202Z,63.50
2018-02-11T05:30:51.258Z,63.50
2018-02-11T05:33:19.317Z,63.60
2018-02-11T05:35:48.254Z,63.70
2018-02-11T05:38:16.332Z,63.70
2018-02-11T05:40:44.382Z,64.10
2018-02-11T05:43:12.445Z,64.00
2018-02-11T05:45:40.499Z,63.90
2018-02-11T05:48:08.611Z,63.60
2018-02-11T05:50:37.913Z,63.60
2018-02-11T05:53:06.710Z,63.60
2018-02-11T05:55:35.522Z,63.50
2018-02-11T05:58:04.351Z,63.50
2018-02-11T06:00:32.386Z,63.50
2018-02-11T06:03:00.476Z,63.50
2018-02-11T06:05:28.510Z,63.70
2018-02-11T06:07:56.604Z,63.20
2018-02-11T06:10:24.654Z,63.20
2018-02-11T06:12:52.737Z,63.60
2018-02-11T06:15:21.530Z,63.50
2018-02-11T06:17:49.574Z,63.50
2018-02-11T06:20:17.626Z,63.60
2018-02-11T06:22:45.670Z,63.40
2018-02-11T06:25:14.489Z,63.70
2018-02-11T06:27:42.539Z,63.60
2018-02-11T06:30:11.368Z,63.70
2018-02-11T06:32:39.412Z,63.70
2018-02-11T06:35:07.455Z,63.60
2018-02-11T06:37:36.270Z,63.00
2018-02-11T06:40:04.318Z,62.90
2018-02-11T06:42:33.151Z,63.50
2018-02-11T06:45:01.202Z,63.40
2018-02-11T06:47:29.243Z,62.90
2018-02-11T06:49:57.291Z,62.60
2018-02-11T06:52:25.363Z,62.60
2018-02-11T06:54:53.421Z,62.90
2018-02-11T06:57:21.485Z,62.90
2018-02-11T06:59:50.305Z,63.50
2018-02-11T07:02:18.345Z,63.50
2018-02-11T07:04:46.414Z,63.30
2018-02-11T07:07:14.451Z,63.60
2018-02-11T07:09:47.318Z,63.70
2018-02-11T07:12:15.375Z,63.90
2018-02-11T07:14:43.467Z,63.30
2018-02-11T07:17:11.548Z,63.00
2018-02-11T07:19:39.583Z,63.50
2018-02-11T07:22:07.633Z,63.10
2018-02-11T07:24:35.703Z,63.10
2018-02-11T07:27:03.734Z,63.40
2018-02-11T07:29:31.792Z,63.40
2018-02-11T07:31:59.839Z,63.80
2018-02-11T07:34:27.880Z,63.80
2018-02-11T07:36:56.685Z,64.30
2018-02-11T07:39:24.735Z,64.30
2018-02-11T07:41:52.795Z,65.40
2018-02-11T07:44:21.011Z,64.90
2018-02-11T07:46:49.833Z,65.40
2018-02-11T07:49:17.878Z,64.50
2018-02-11T07:51:46.002Z,65.10
2018-02-11T07:54:14.050Z,66.10
2018-02-11T07:56:42.716Z,65.20
2018-02-11T07:59:11.535Z,64.80
2018-02-11T08:01:39.567Z,64.70
2018-02-11T08:04:07.668Z,65.20
2018-02-11T08:06:35.689Z,65.20
2018-02-11T08:09:03.750Z,64.80
2018-02-11T08:11:31.999Z,64.80
2018-02-11T08:14:00.856Z,64.60
2018-02-11T08:16:28.899Z,64.50
2018-02-11T08:18:56.937Z,64.50
2018-02-11T08:21:25.014Z,64.40
2018-02-11T08:23:53.062Z,64.80
2018-02-11T08:26:21.137Z,65.20
2018-02-11T08:28:49.188Z,64.60
2018-02-11T08:31:18.017Z,64.20
2018-02-11T08:33:46.078Z,64.10
2018-02-11T08:36:14.888Z,63.90
2018-02-11T08:38:42.952Z,63.80
2018-02-11T08:41:11.776Z,63.20
2018-02-11T08:43:39.811Z,63.10
2018-02-11T08:46:07.975Z,63.20
2018-02-11T08:48:36.029Z,62.70
2018-02-11T08:51:04.846Z,63.60
2018-02-11T08:53:32.928Z,63.60
2018-02-11T08:56:00.975Z,62.80
2018-02-11T08:58:29.804Z,63.00
2018-02-11T09:00:57.855Z,62.90
2018-02-11T09:03:25.897Z,62.20
2018-02-11T09:05:53.938Z,62.70
2018-02-11T09:08:22.004Z,62.70
2018-02-11T09:10:50.843Z,62.40
2018-02-11T09:13:18.887Z,62.30
2018-02-11T09:15:47.719Z,61.90
2018-02-11T09:18:15.772Z,61.90
2018-02-11T09:20:44.589Z,63.00
2018-02-11T09:23:13.168Z,63.00
2018-02-11T09:25:41.988Z,65.30
2018-02-11T09:28:10.046Z,65.20
2018-02-11T09:30:38.099Z,64.70
2018-02-11T09:33:06.416Z,64.70
2018-02-11T09:35:34.476Z,63.90
2018-02-11T09:38:02.530Z,64.50
2018-02-11T09:40:30.591Z,64.00
2018-02-11T09:42:58.651Z,64.80
2018-02-11T09:45:26.925Z,64.10
2018-02-11T09:47:54.974Z,64.40
2018-02-11T09:50:23.020Z,64.40
2018-02-11T09:52:51.872Z,64.60
2018-02-11T09:55:19.980Z,64.50
2018-02-11T09:57:48.187Z,65.10
2018-02-11T10:00:16.477Z,65.60
2018-02-11T10:02:44.528Z,66.20
2018-02-11T10:05:12.588Z,67.10
2018-02-11T10:07:41.742Z,67.30
2018-02-11T10:10:10.819Z,67.40
2018-02-11T10:12:39.116Z,67.30
2018-02-11T10:15:07.158Z,66.90
2018-02-11T10:17:35.262Z,66.70
2018-02-11T10:20:03.321Z,66.70
2018-02-11T10:22:31.357Z,66.30
2018-02-11T10:24:59.422Z,66.10
2018-02-11T10:27:27.482Z,65.80
2018-02-11T10:29:55.533Z,65.70
2018-02-11T10:32:24.349Z,65.70
2018-02-11T10:34:52.512Z,65.70
2018-02-11T10:37:21.326Z,66.00
2018-02-11T10:39:49.383Z,66.00
2018-02-11T10:42:17.435Z,66.30
2018-02-11T10:44:45.509Z,66.60
2018-02-11T10:47:13.547Z,67.70
2018-02-11T10:49:42.410Z,67.20
2018-02-11T10:52:10.466Z,67.20
2018-02-11T10:54:38.532Z,67.50
2018-02-11T10:57:07.363Z,67.50
2018-02-11T10:59:35.627Z,67.50
2018-02-11T11:02:03.694Z,67.90
2018-02-11T11:04:32.512Z,67.10
2018-02-11T11:07:00.568Z,67.10
2018-02-11T11:09:29.382Z,66.80
2018-02-11T11:11:57.429Z,66.80
2018-02-11T11:14:25.583Z,67.20
2018-02-11T11:16:54.468Z,67.90
2018-02-11T11:19:22.539Z,67.60
2018-02-11T11:21:50.624Z,67.00
2018-02-11T11:24:18.685Z,67.30
2018-02-11T11:26:47.539Z,67.90
2018-02-11T11:29:15.630Z,67.60
2018-02-11T11:31:43.688Z,67.30
2018-02-11T11:34:11.756Z,67.10
2018-02-11T11:36:40.590Z,67.20
2018-02-11T11:39:08.641Z,67.20
2018-02-11T11:41:36.691Z,67.40
2018-02-11T11:44:04.752Z,66.90
2018-02-11T11:46:32.812Z,67.10
2018-02-11T11:49:01.696Z,67.10
2018-02-11T11:51:30.130Z,68.70
2018-02-11T11:53:58.154Z,70.00
2018-02-11T11:56:27.020Z,76.00
2018-02-11T11:58:55.025Z,75.90
2018-02-11T12:01:23.437Z,77.50
2018-02-11T12:03:51.464Z,77.60
2018-02-11T12:06:19.645Z,78.30
2018-02-11T12:08:47.786Z,78.70
2018-02-11T12:11:17.033Z,78.80
2018-02-11T12:13:45.098Z,78.10
2018-02-11T12:16:13.138Z,78.00
2018-02-11T12:18:42.033Z,78.20
2018-02-11T12:21:10.059Z,79.10
2018-02-11T12:23:38.126Z,80.00
2018-02-11T12:26:06.185Z,79.70
2018-02-11T12:28:34.214Z,79.90
2018-02-11T12:31:02.262Z,79.50
2018-02-11T12:33:30.430Z,79.60
2018-02-11T12:35:58.731Z,80.00
2018-02-11T12:38:26.762Z,79.80
2018-02-11T12:40:54.814Z,79.90
2018-02-11T12:43:24.511Z,79.70
2018-02-11T12:45:52.584Z,79.60
2018-02-11T12:48:20.625Z,79.60
2018-02-11T12:50:48.686Z,79.50
2018-02-11T12:53:17.552Z,79.10
2018-02-11T12:55:45.618Z,79.10
2018-02-11T12:58:13.719Z,78.70
2018-02-11T13:00:42.395Z,78.70
2018-02-11T13:03:10.452Z,78.00
2018-02-11T13:05:38.497Z,78.40
2018-02-11T13:08:06.554Z,78.20
2018-02-11T13:10:34.620Z,78.20
2018-02-11T13:13:02.661Z,78.20
2018-02-11T13:15:32.707Z,78.50
2018-02-11T13:18:01.606Z,78.30
2018-02-11T13:20:31.364Z,77.60
2018-02-11T13:22:59.428Z,77.60
2018-02-11T13:25:27.475Z,78.10
2018-02-11T13:27:55.528Z,78.20
2018-02-11T13:30:23.692Z,78.50
2018-02-11T13:32:51.707Z,78.50
2018-02-11T13:35:19.741Z,79.10
2018-02-11T13:37:47.824Z,79.30
2018-02-11T13:40:15.935Z,79.40
2018-02-11T13:42:44.198Z,79.60
2018-02-11T13:45:12.397Z,78.60
2018-02-11T13:47:40.468Z,78.70
2018-02-11T13:50:08.515Z,78.00
2018-02-11T13:52:36.630Z,77.60
2018-02-11T13:55:05.458Z,78.20
2018-02-11T13:57:33.564Z,78.20
2018-02-11T14:00:01.611Z,78.50
2018-02-11T14:02:30.498Z,78.30
2018-02-11T14:04:58.567Z,77.80
2018-02-11T14:07:27.385Z,78.40
2018-02-11T14:09:55.448Z,78.40
2018-02-11T14:12:24.267Z,78.50
2018-02-11T14:14:53.075Z,78.90
2018-02-11T14:17:21.138Z,78.90
2018-02-11T14:19:49.958Z,79.00
2018-02-11T14:22:18.009Z,78.90
2018-02-11T14:24:47.079Z,78.60
2018-02-11T14:27:15.136Z,79.30
2018-02-11T14:29:43.218Z,79.70
2018-02-11T14:32:11.280Z,80.40
2018-02-11T14:34:39.321Z,81.20
2018-02-11T14:37:07.388Z,81.60
2018-02-11T14:39:35.474Z,81.70
2018-02-11T14:42:05.277Z,82.60
2018-02-11T14:44:33.307Z,82.50
2018-02-11T14:47:01.359Z,82.90
2018-02-11T14:49:29.416Z,83.00
2018-02-11T14:51:58.277Z,83.90
2018-02-11T14:54:26.286Z,83.90
2018-02-11T14:56:54.370Z,83.90
2018-02-11T14:59:23.189Z,83.70
2018-02-11T15:01:51.244Z,83.70
2018-02-11T15:04:19.306Z,83.40
2018-02-11T15:06:47.381Z,83.40
2018-02-11T15:09:15.476Z,83.10
2018-02-11T15:11:43.543Z,83.40
2018-02-11T15:14:11.612Z,83.40
2018-02-11T15:16:39.672Z,83.60
2018-02-11T15:19:07.740Z,83.40
2018-02-11T15:21:36.564Z,83.60
2018-02-11T15:24:04.640Z,83.50
2018-02-11T15:26:32.683Z,83.30
2018-02-11T15:29:00.775Z,83.40
2018-02-11T15:31:28.819Z,83.90
2018-02-11T15:33:56.894Z,83.40
2018-02-11T15:36:24.926Z,83.90
2018-02-11T15:38:52.983Z,83.60
2018-02-11T15:41:21.029Z,84.70
2018-02-11T15:43:49.120Z,84.30
2018-02-11T15:46:17.187Z,84.40
2018-02-11T15:48:45.254Z,84.60
2018-02-11T15:51:13.295Z,84.50
2018-02-11T15:53:41.334Z,84.70
2018-02-11T15:56:09.392Z,84.50
2018-02-11T15:58:37.443Z,84.20
2018-02-11T16:01:05.498Z,84.60
2018-02-11T16:03:33.599Z,84.50
2018-02-11T16:06:01.647Z,84.20
2018-02-11T16:08:30.477Z,83.90
2018-02-11T16:10:58.513Z,83.80
2018-02-11T16:13:27.334Z,85.20
2018-02-11T16:15:55.378Z,84.40
2018-02-11T16:18:23.440Z,84.10
2018-02-11T16:20:52.674Z,84.00
2018-02-11T16:23:20.898Z,83.80
2018-02-11T16:25:49.711Z,83.80
2018-02-11T16:28:17.764Z,83.70
2018-02-11T16:30:45.819Z,84.30
2018-02-11T16:33:13.880Z,84.50
2018-02-11T16:35:41.936Z,84.30
2018-02-11T16:38:09.992Z,84.50
2018-02-11T16:40:38.064Z,84.40
2018-02-11T16:43:06.124Z,84.10
2018-02-11T16:45:34.197Z,84.10
2018-02-11T16:48:02.276Z,83.70
2018-02-11T16:50:31.632Z,84.80
2018-02-11T16:52:59.759Z,83.40
2018-02-11T16:55:27.883Z,83.20
2018-02-11T16:57:55.970Z,83.20
2018-02-11T17:00:24.102Z,82.70
2018-02-11T17:02:52.221Z,83.10
2018-02-11T17:05:20.327Z,83.10
2018-02-11T17:07:48.413Z,82.60
2018-02-11T17:10:16.508Z,83.30
2018-02-11T17:12:44.856Z,83.80
2018-02-11T17:15:13.708Z,83.30
2018-02-11T17:17:41.871Z,83.20
2018-02-11T17:20:10.060Z,83.00
2018-02-11T17:22:38.144Z,82.70
2018-02-11T17:25:06.292Z,82.30
2018-02-11T17:27:35.316Z,82.30
2018-02-11T17:30:04.281Z,82.20
2018-02-11T17:32:33.081Z,82.50
2018-02-11T17:35:01.238Z,82.10
2018-02-11T17:37:29.410Z,82.70
2018-02-11T17:39:57.595Z,83.00
2018-02-11T17:42:25.796Z,83.30
2018-02-11T17:44:53.891Z,83.10
2018-02-11T17:47:22.829Z,83.80
2018-02-11T17:49:50.933Z,83.80
2018-02-11T17:52:19.110Z,84.10
2018-02-11T17:54:47.827Z,84.00
2018-02-11T17:57:16.031Z,83.90
2018-02-11T17:59:44.171Z,84.30
2018-02-11T18:02:13.073Z,86.00
2018-02-11T18:04:41.414Z,86.00
2018-02-11T18:07:09.762Z,86.20
2018-02-11T18:09:38.248Z,86.80
2018-02-11T18:12:06.414Z,86.90
2018-02-11T18:14:35.385Z,87.30
2018-02-11T18:17:03.535Z,87.00
2018-02-11T18:19:31.770Z,87.00
2018-02-11T18:21:59.904Z,87.80
2018-02-11T18:24:28.035Z,87.30
2018-02-11T18:26:56.962Z,87.50
2018-02-11T18:29:25.223Z,87.40
2018-02-11T18:31:53.509Z,88.00
2018-02-11T18:34:22.413Z,88.20
2018-02-11T18:36:50.551Z,88.00
2018-02-11T18:39:18.852Z,88.00
2018-02-11T18:41:47.062Z,87.70
2018-02-11T18:44:16.018Z,88.10
2018-02-11T18:46:44.266Z,87.90
2018-02-11T18:49:13.184Z,88.80
2018-02-11T18:51:42.019Z,88.80
2018-02-11T18:54:10.158Z,88.90
2018-02-11T18:56:38.384Z,89.00
2018-02-11T18:59:06.559Z,88.70
2018-02-11T19:01:36.601Z,89.20
2018-02-11T19:04:07.102Z,89.20
2018-02-11T19:06:38.336Z,88.80
2018-02-11T19:09:09.430Z,89.30
2018-02-11T19:11:39.485Z,89.00
2018-02-11T19:14:27.132Z,89.20
2018-02-11T19:17:03.392Z,89.30
2018-02-11T19:19:34.515Z,88.70
2018-02-11T19:22:11.978Z,88.00
2018-02-11T19:24:41.390Z,87.40
2018-02-11T19:27:09.737Z,87.40
2018-02-11T19:29:37.787Z,86.90
2018-02-11T19:32:06.614Z,87.40
2018-02-11T19:34:34.662Z,86.90
2018-02-11T19:37:02.806Z,86.50
2018-02-11T19:39:30.831Z,86.60
2018-02-11T19:41:58.881Z,86.10
2018-02-11T19:44:26.944Z,85.60
2018-02-11T19:46:55.758Z,85.70
2018-02-11T19:49:23.823Z,85.60
2018-02-11T19:51:52.659Z,83.90
2018-02-11T19:54:20.734Z,83.90
2018-02-11T19:56:48.780Z,84.40
2018-02-11T19:59:16.854Z,84.40
2018-02-11T20:01:44.894Z,84.40
2018-02-11T20:04:13.294Z,83.00
2018-02-11T20:06:41.898Z,82.90
2018-02-11T20:09:09.955Z,83.30
2018-02-11T20:11:38.070Z,82.20
2018-02-11T20:14:06.114Z,82.20
2018-02-11T20:16:34.162Z,82.60
2018-02-11T20:19:02.238Z,82.50
2018-02-11T20:21:30.284Z,83.30
2018-02-11T20:23:58.341Z,82.70
2018-02-11T20:26:26.415Z,82.10
2018-02-11T20:28:54.459Z,83.30
2018-02-11T20:31:22.590Z,83.00
2018-02-11T20:33:50.598Z,83.00
2018-02-11T20:36:18.638Z,82.90
2018-02-11T20:38:46.695Z,83.60
2018-02-11T20:41:14.744Z,83.50
2018-02-11T20:43:42.816Z,83.30
2018-02-11T20:46:10.868Z,83.40
2018-02-11T20:48:39.202Z,83.20
2018-02-11T20:51:07.242Z,83.50
2018-02-11T20:53:35.316Z,83.50
2018-02-11T20:56:03.358Z,83.40
2018-02-11T20:58:31.435Z,83.70
2018-02-11T21:00:59.520Z,82.70
2018-02-11T21:03:27.608Z,82.50
2018-02-11T21:05:55.664Z,82.00
2018-02-11T21:08:23.787Z,81.80
2018-02-11T21:10:51.848Z,80.90
2018-02-11T21:13:19.887Z,81.40
2018-02-11T21:15:47.948Z,81.30
2018-02-11T21:18:16.022Z,81.80
2018-02-11T21:20:45.099Z,81.10
2018-02-11T21:23:13.755Z,81.00
2018-02-11T21:25:41.944Z,80.80
2018-02-11T21:28:10.015Z,81.10
2018-02-11T21:30:38.102Z,80.90
2018-02-11T21:33:06.152Z,80.60
2018-02-11T21:35:34.339Z,81.70
2018-02-11T21:38:02.430Z,80.40
2018-02-11T21:40:30.472Z,80.90
2018-02-11T21:42:58.627Z,80.70
2018-02-11T21:45:26.700Z,81.00
2018-02-11T21:47:54.755Z,81.00
2018-02-11T21:50:22.873Z,81.50
2018-02-11T21:52:50.915Z,81.60
2018-02-11T21:55:18.970Z,81.80
2018-02-11T21:57:47.036Z,80.90
2018-02-11T22:00:15.214Z,80.80
2018-02-11T22:02:43.298Z,81.00
2018-02-11T22:05:11.355Z,80.40
2018-02-11T22:07:39.399Z,80.00
2018-02-11T22:10:07.591Z,80.20
2018-02-11T22:12:35.743Z,79.80
2018-02-11T22:15:03.838Z,80.10
2018-02-11T22:17:31.886Z,79.80
2018-02-11T22:19:59.933Z,79.50
2018-02-11T22:22:29.003Z,80.30
2018-02-11T22:24:57.134Z,79.70
2018-02-11T22:27:25.175Z,80.20
2018-02-11T22:29:53.991Z,79.10
2018-02-11T22:32:22.869Z,79.10
2018-02-11T22:34:50.892Z,79.20
2018-02-11T22:37:18.985Z,78.50
2018-02-11T22:39:47.056Z,78.10
2018-02-11T22:42:15.087Z,78.20
2018-02-11T22:44:43.292Z,78.10
2018-02-11T22:47:12.118Z,79.20
2018-02-11T22:49:41.630Z,78.80
2018-02-11T22:52:10.556Z,78.80
2018-02-11T22:54:38.604Z,78.70
2018-02-11T22:57:07.574Z,78.50
2018-02-11T22:59:35.646Z,78.50
2018-02-11T23:02:03.710Z,78.10
2018-02-11T23:04:31.778Z,78.00
2018-02-11T23:06:59.853Z,77.70
2018-02-11T23:09:28.675Z,77.70
2018-02-11T23:11:56.759Z,77.70
2018-02-11T23:14:24.811Z,78.00
2018-02-11T23:16:53.627Z,78.50
2018-02-11T23:19:21.682Z,78.40
2018-02-11T23:21:49.723Z,78.20
2018-02-11T23:24:17.784Z,78.50
2018-02-11T23:26:45.842Z,78.10
2018-02-11T23:29:14.658Z,78.50
2018-02-11T23:31:42.706Z,78.40
2018-02-11T23:34:10.785Z,76.90
2018-02-11T23:36:39.185Z,77.50
2018-02-11T23:39:07.230Z,78.00
2018-02-11T23:41:35.369Z,77.10
2018-02-11T23:44:04.250Z,77.50
2018-02-11T23:46:32.297Z,77.50
2018-02-11T23:49:00.413Z,76.60
2018-02-11T23:51:28.466Z,76.90
2018-02-11T23:53:56.531Z,76.00
2018-02-11T23:56:24.574Z,75.60
2018-02-11T23:58:52.704Z,75.80
